Terminal Aerodrome Forecast
Issued by NWS Quad Cities IA IL

Home | Current Version | Previous Version | Text Only | Print | Product List | Glossary On
Versions: 1 2 3 4 5 6 7 8 9 10 11 12 13 14 15 16 17 18 19 20
000
FTUS43 KDVN 161700
TAFDBQ
TAF
KDBQ 161720Z 1618/1718 17024G34KT P6SM BKN120
     FM170000 15016G25KT P6SM BKN080
     FM170600 17012KT P6SM -RA BKN050
     FM171000 21010KT P6SM BKN150
     FM171400 28010KT P6SM BKN035=

USA.gov is the U.S. government's official web portal to all federal, state and local government web resources and services.